createdAt,value
2022-12-15T00:00:51.173Z,12.75
2022-12-15T00:04:12.880Z,12.55
2022-12-15T00:07:34.197Z,13.50
2022-12-15T00:10:57.004Z,14.10
2022-12-15T00:14:18.255Z,14.23
2022-12-15T00:17:39.668Z,13.20
2022-12-15T00:21:03.134Z,14.13
2022-12-15T00:24:24.623Z,14.43
2022-12-15T00:27:45.866Z,14.60
2022-12-15T00:31:07.252Z,13.55
2022-12-15T00:34:28.728Z,13.23
2022-12-15T00:37:50.135Z,12.90
2022-12-15T00:40:59.148Z,13.07
2022-12-15T00:44:02.106Z,14.23
2022-12-15T00:47:05.308Z,13.55
2022-12-15T00:50:30.615Z,12.10
2022-12-15T00:53:56.087Z,14.50
2022-12-15T00:57:17.537Z,13.70
2022-12-15T01:00:39.440Z,14.13
2022-12-15T01:04:00.865Z,13.20
2022-12-15T01:07:22.221Z,12.75
2022-12-15T01:10:43.539Z,12.68
2022-12-15T01:14:04.909Z,14.17
2022-12-15T01:17:26.510Z,14.43
2022-12-15T01:20:32.828Z,12.52
2022-12-15T01:23:36.006Z,14.57
2022-12-15T01:26:39.466Z,12.80
2022-12-15T01:29:42.254Z,13.47
2022-12-15T01:32:46.291Z,13.77
2022-12-15T01:35:59.915Z,13.00
2022-12-15T01:39:02.665Z,14.45
2022-12-15T01:42:05.377Z,13.27
2022-12-15T01:45:29.646Z,13.07
2022-12-15T01:48:54.820Z,15.57
2022-12-15T01:52:00.856Z,13.75
2022-12-15T01:55:04.204Z,13.45
2022-12-15T01:58:11.569Z,12.82
2022-12-15T02:01:14.404Z,11.93
2022-12-15T02:04:19.763Z,12.37
2022-12-15T02:07:23.006Z,12.68
2022-12-15T02:10:31.170Z,13.32
2022-12-15T02:13:36.901Z,12.48
2022-12-15T02:17:06.271Z,13.97
2022-12-15T02:20:35.736Z,13.30
2022-12-15T02:24:15.676Z,13.35
2022-12-15T02:28:08.995Z,14.85
2022-12-15T02:31:49.850Z,13.30
2022-12-15T02:35:05.985Z,11.90
2022-12-15T02:38:09.786Z,12.20
2022-12-15T02:41:31.122Z,13.65
2022-12-15T02:44:48.426Z,13.25
2022-12-15T02:48:00.028Z,12.95
2022-12-15T02:51:28.637Z,12.07
2022-12-15T02:54:36.005Z,11.77
2022-12-15T02:58:04.937Z,12.07
2022-12-15T03:01:46.831Z,12.52
2022-12-15T03:04:53.297Z,13.05
2022-12-15T03:07:56.145Z,12.73
2022-12-15T03:10:59.389Z,12.17
2022-12-15T03:14:02.138Z,13.73
2022-12-15T03:17:07.273Z,14.18
2022-12-15T03:20:11.047Z,11.23
2022-12-15T03:23:13.743Z,12.63
2022-12-15T03:26:16.617Z,10.60
2022-12-15T03:29:19.594Z,11.73
2022-12-15T03:32:22.283Z,13.07
2022-12-15T03:35:24.958Z,11.77
2022-12-15T03:38:27.933Z,11.40
2022-12-15T03:41:30.602Z,11.83
2022-12-15T03:44:33.321Z,12.43
2022-12-15T03:47:35.971Z,13.43
2022-12-15T03:50:38.739Z,12.07
2022-12-15T03:53:41.391Z,11.30
2022-12-15T03:56:44.641Z,12.83
2022-12-15T03:59:47.669Z,11.93
2022-12-15T04:02:51.126Z,12.68
2022-12-15T04:05:53.934Z,12.50
2022-12-15T04:08:56.928Z,11.93
2022-12-15T04:12:00.077Z,13.13
2022-12-15T04:15:02.806Z,11.32
2022-12-15T04:18:10.000Z,11.35
2022-12-15T04:21:13.026Z,11.55
2022-12-15T04:24:34.436Z,11.90
2022-12-15T04:28:01.265Z,12.77
2022-12-15T04:31:29.920Z,11.82
2022-12-15T04:34:51.469Z,12.05
2022-12-15T04:38:12.863Z,11.45
2022-12-15T04:41:35.199Z,12.57
2022-12-15T04:44:56.519Z,12.47
2022-12-15T04:48:18.580Z,12.23
2022-12-15T04:51:39.892Z,10.52
2022-12-15T04:55:01.153Z,11.95
2022-12-15T04:58:27.080Z,11.97
2022-12-15T05:01:48.489Z,11.80
2022-12-15T05:05:09.457Z,11.27
2022-12-15T05:08:30.781Z,11.13
2022-12-15T05:11:52.177Z,10.55
2022-12-15T05:15:13.733Z,12.13
2022-12-15T05:18:35.601Z,11.03
2022-12-15T05:21:57.723Z,10.25
2022-12-15T05:25:18.770Z,11.27
2022-12-15T05:28:40.346Z,10.98
2022-12-15T05:31:52.392Z,11.83
2022-12-15T05:34:55.080Z,12.47
2022-12-15T05:37:57.778Z,13.63
2022-12-15T05:41:00.967Z,11.85
2022-12-15T05:44:03.910Z,11.70
2022-12-15T05:47:08.311Z,12.33
2022-12-15T05:50:11.197Z,11.33
2022-12-15T05:53:14.120Z,13.07
2022-12-15T05:56:19.319Z,11.38
2022-12-15T05:59:22.254Z,14.35
2022-12-15T06:02:25.327Z,11.57
2022-12-15T06:05:28.224Z,12.43
2022-12-15T06:08:33.756Z,12.30
2022-12-15T06:11:37.727Z,11.70
2022-12-15T06:14:40.458Z,13.20
2022-12-15T06:18:02.832Z,12.20
2022-12-15T06:21:14.792Z,10.67
2022-12-15T06:24:18.447Z,11.73
2022-12-15T06:27:21.916Z,12.13
2022-12-15T06:30:24.722Z,11.13
2022-12-15T06:33:30.235Z,10.93
2022-12-15T06:36:45.304Z,12.20
2022-12-15T06:39:48.724Z,12.05
2022-12-15T06:42:51.537Z,11.52
2022-12-15T06:45:54.354Z,11.18
2022-12-15T06:48:58.255Z,12.10
2022-12-15T06:52:03.925Z,14.67
2022-12-15T06:55:06.963Z,11.02
2022-12-15T06:58:12.464Z,12.05
2022-12-15T07:01:16.507Z,12.23
2022-12-15T07:04:20.514Z,11.43
2022-12-15T07:07:26.298Z,12.03
2022-12-15T07:10:30.936Z,12.52
2022-12-15T07:13:43.954Z,11.88
2022-12-15T07:16:51.674Z,12.70
2022-12-15T07:19:55.280Z,11.70
2022-12-15T07:23:08.201Z,12.03
2022-12-15T07:26:11.916Z,11.95
2022-12-15T07:29:23.444Z,12.95
2022-12-15T07:32:31.519Z,11.23
2022-12-15T07:35:48.358Z,11.70
2022-12-15T07:38:52.035Z,12.20
2022-12-15T07:41:55.093Z,11.68
2022-12-15T07:44:58.198Z,12.52
2022-12-15T07:48:00.836Z,11.63
2022-12-15T07:51:18.812Z,11.87
2022-12-15T07:54:26.588Z,13.87
2022-12-15T07:57:35.117Z,11.55
2022-12-15T08:00:38.772Z,13.10
2022-12-15T08:03:43.876Z,11.73
2022-12-15T08:06:46.775Z,12.17
2022-12-15T08:09:49.543Z,12.00
2022-12-15T08:12:53.123Z,11.02
2022-12-15T08:15:56.138Z,15.13
2022-12-15T08:18:58.872Z,12.85
2022-12-15T08:22:04.655Z,13.73
2022-12-15T08:25:08.156Z,14.70
2022-12-15T08:28:11.670Z,11.93
2022-12-15T08:31:17.584Z,13.05
2022-12-15T08:34:20.877Z,13.38
2022-12-15T08:37:23.665Z,12.70
2022-12-15T08:40:26.657Z,13.43
2022-12-15T08:43:29.669Z,14.63
2022-12-15T08:46:34.526Z,16.02
2022-12-15T08:49:37.705Z,15.52
2022-12-15T08:52:55.390Z,16.97
2022-12-15T08:56:12.500Z,15.37
2022-12-15T08:59:16.007Z,15.80
2022-12-15T09:02:18.880Z,17.05
2022-12-15T09:05:27.514Z,17.60
2022-12-15T09:08:31.294Z,16.13
2022-12-15T09:11:43.808Z,17.27
2022-12-15T09:14:46.812Z,16.27
2022-12-15T09:17:49.720Z,15.95
2022-12-15T09:20:52.897Z,23.95
2022-12-15T09:24:00.660Z,18.40
2022-12-15T09:27:04.770Z,16.27
2022-12-15T09:30:10.185Z,18.27
2022-12-15T09:33:18.658Z,18.73
2022-12-15T09:36:42.859Z,16.67
2022-12-15T09:39:45.726Z,18.60
2022-12-15T09:43:04.859Z,18.67
2022-12-15T09:46:36.151Z,18.13
2022-12-15T09:50:03.139Z,16.67
2022-12-15T09:53:29.825Z,18.77
2022-12-15T09:56:49.824Z,19.50
2022-12-15T10:00:15.537Z,15.77
2022-12-15T10:03:44.917Z,15.15
2022-12-15T10:06:56.584Z,19.20
2022-12-15T10:09:59.310Z,17.08
2022-12-15T10:13:18.059Z,17.40
2022-12-15T10:16:37.233Z,17.37
2022-12-15T10:19:58.182Z,16.20
2022-12-15T10:23:11.739Z,18.30
2022-12-15T10:26:33.135Z,15.75
2022-12-15T10:30:03.004Z,22.00
2022-12-15T10:33:21.812Z,19.57
2022-12-15T10:36:39.193Z,16.88
2022-12-15T10:39:45.814Z,14.05
2022-12-15T10:42:53.010Z,16.08
2022-12-15T10:46:11.358Z,15.47
2022-12-15T10:49:14.107Z,14.73
2022-12-15T10:52:27.483Z,17.55
2022-12-15T10:55:49.751Z,13.00
2022-12-15T10:58:55.856Z,15.70
2022-12-15T11:02:25.269Z,16.50
2022-12-15T11:05:28.466Z,15.93
2022-12-15T11:08:32.285Z,16.98
2022-12-15T11:12:03.889Z,15.57
2022-12-15T11:15:32.734Z,18.17
2022-12-15T11:18:43.063Z,15.93
2022-12-15T11:21:50.677Z,22.23
2022-12-15T11:24:59.670Z,15.85
2022-12-15T11:28:11.465Z,16.33
2022-12-15T11:31:38.471Z,19.40
2022-12-15T11:34:46.700Z,16.50
2022-12-15T11:38:01.504Z,17.80
2022-12-15T11:41:35.304Z,17.35
2022-12-15T11:44:45.748Z,17.48
2022-12-15T11:48:13.033Z,14.68
2022-12-15T11:51:25.272Z,15.57
2022-12-15T11:54:35.058Z,17.57
2022-12-15T11:57:50.406Z,17.98
2022-12-15T12:01:32.016Z,15.60
2022-12-15T12:05:08.356Z,16.35
2022-12-15T12:08:29.573Z,16.07
2022-12-15T12:11:40.539Z,19.33
2022-12-15T12:15:12.720Z,16.95
2022-12-15T12:18:25.827Z,17.50
2022-12-15T12:21:34.279Z,18.10
2022-12-15T12:24:41.672Z,18.97
2022-12-15T12:27:50.418Z,20.97
2022-12-15T12:30:57.115Z,15.98
2022-12-15T12:34:06.869Z,18.70
2022-12-15T12:37:34.073Z,18.92
2022-12-15T12:40:53.900Z,17.93
2022-12-15T12:44:01.017Z,19.03
2022-12-15T12:47:19.188Z,15.38
2022-12-15T12:50:26.167Z,17.83
2022-12-15T12:53:34.223Z,20.13
2022-12-15T12:56:43.421Z,16.13
2022-12-15T13:00:17.049Z,15.37
2022-12-15T13:03:21.715Z,18.42
2022-12-15T13:06:36.432Z,15.63
2022-12-15T13:09:40.889Z,16.42
2022-12-15T13:12:56.427Z,17.03
2022-12-15T13:16:06.764Z,17.70
2022-12-15T13:19:09.717Z,21.50
2022-12-15T13:22:31.621Z,19.10
2022-12-15T13:25:36.084Z,20.67
2022-12-15T13:28:39.284Z,17.53
2022-12-15T13:31:49.181Z,17.60
2022-12-15T13:34:52.078Z,19.52
2022-12-15T13:37:56.994Z,19.50
2022-12-15T13:41:00.126Z,19.10
2022-12-15T13:44:22.005Z,17.33
2022-12-15T13:47:30.851Z,20.57
2022-12-15T13:51:00.100Z,23.35
2022-12-15T13:54:10.073Z,21.17
2022-12-15T13:57:16.735Z,24.30
2022-12-15T14:00:19.926Z,21.00
2022-12-15T14:03:23.675Z,21.43
2022-12-15T14:06:35.647Z,20.83
2022-12-15T14:09:41.614Z,20.88
2022-12-15T14:12:45.731Z,23.08
2022-12-15T14:16:04.576Z,21.83
2022-12-15T14:19:18.885Z,23.33
2022-12-15T14:22:30.356Z,23.73
2022-12-15T14:25:34.017Z,25.80
2022-12-15T14:28:38.473Z,24.77
2022-12-15T14:31:49.756Z,26.10
2022-12-15T14:34:53.283Z,28.90
2022-12-15T14:37:58.560Z,27.20
2022-12-15T14:41:04.400Z,27.08
2022-12-15T14:44:31.379Z,29.20
2022-12-15T14:47:41.556Z,28.50
2022-12-15T14:50:55.461Z,29.37
2022-12-15T14:53:59.725Z,25.88
2022-12-15T14:57:14.139Z,30.50
2022-12-15T15:00:31.242Z,32.05
2022-12-15T15:03:39.462Z,29.90
2022-12-15T15:06:42.524Z,23.93
2022-12-15T15:09:47.363Z,31.40
2022-12-15T15:12:50.135Z,27.80
2022-12-15T15:16:00.391Z,27.00
2022-12-15T15:19:04.680Z,28.00
2022-12-15T15:22:24.090Z,26.10
2022-12-15T15:25:28.659Z,26.48
2022-12-15T15:28:41.384Z,22.65
2022-12-15T15:31:44.842Z,26.40
2022-12-15T15:34:48.255Z,30.90
2022-12-15T15:37:52.665Z,26.40
2022-12-15T15:40:58.026Z,25.75
2022-12-15T15:44:02.347Z,25.30
2022-12-15T15:47:05.567Z,25.63
2022-12-15T15:50:13.713Z,29.57
2022-12-15T15:53:21.060Z,27.03
2022-12-15T15:56:24.324Z,25.85
2022-12-15T15:59:29.087Z,25.27
2022-12-15T16:02:31.912Z,28.08
2022-12-15T16:05:35.746Z,26.67
2022-12-15T16:08:38.555Z,26.53
2022-12-15T16:11:41.238Z,25.05
2022-12-15T16:14:44.006Z,30.58
2022-12-15T16:17:47.930Z,27.33
2022-12-15T16:20:52.592Z,24.30
2022-12-15T16:23:57.084Z,27.87
2022-12-15T16:26:59.867Z,24.77
2022-12-15T16:30:02.659Z,25.30
2022-12-15T16:33:06.155Z,25.42
2022-12-15T16:36:17.512Z,23.33
2022-12-15T16:39:41.100Z,22.63
2022-12-15T16:42:48.082Z,24.92
2022-12-15T16:45:53.431Z,24.48
2022-12-15T16:48:56.516Z,24.50
2022-12-15T16:51:59.576Z,22.47
2022-12-15T16:55:02.432Z,25.30
2022-12-15T16:58:06.866Z,24.48
2022-12-15T17:01:12.056Z,25.40
2022-12-15T17:04:17.143Z,25.88
2022-12-15T17:07:21.103Z,26.03
2022-12-15T17:10:27.218Z,26.80
2022-12-15T17:13:40.509Z,25.08
2022-12-15T17:16:46.562Z,24.83
2022-12-15T17:20:32.688Z,25.50
2022-12-15T17:23:20.856Z,25.73
2022-12-15T17:26:31.492Z,27.33
2022-12-15T17:29:34.931Z,26.10
2022-12-15T17:32:38.025Z,26.48
2022-12-15T17:35:40.876Z,24.10
2022-12-15T17:38:44.147Z,26.07
2022-12-15T17:42:04.798Z,24.60
2022-12-15T17:45:23.463Z,23.95
2022-12-15T17:48:26.619Z,27.77
2022-12-15T17:51:29.450Z,26.45
2022-12-15T17:54:33.408Z,23.63
2022-12-15T17:57:36.347Z,27.53
2022-12-15T18:00:45.872Z,26.33
2022-12-15T18:03:51.765Z,25.77
2022-12-15T18:07:01.272Z,24.20
2022-12-15T18:10:05.714Z,27.57
2022-12-15T18:13:18.495Z,24.73
2022-12-15T18:16:21.759Z,26.98
2022-12-15T18:19:29.062Z,27.13
2022-12-15T18:22:36.376Z,23.95
2022-12-15T18:25:40.327Z,23.70
2022-12-15T18:28:44.262Z,25.97
2022-12-15T18:31:49.004Z,22.95
2022-12-15T18:34:55.991Z,25.42
2022-12-15T18:37:58.890Z,26.10
2022-12-15T18:41:02.111Z,25.40
2022-12-15T18:44:05.100Z,27.27
2022-12-15T18:47:16.485Z,30.05
2022-12-15T18:50:25.394Z,24.98
2022-12-15T18:53:30.700Z,25.58
2022-12-15T18:56:34.584Z,26.50
2022-12-15T18:59:37.475Z,27.47
2022-12-15T19:02:41.898Z,27.20
2022-12-15T19:05:45.511Z,27.70
2022-12-15T19:08:50.854Z,27.63
2022-12-15T19:12:13.113Z,27.20
2022-12-15T19:15:21.411Z,27.80
2022-12-15T19:18:44.384Z,29.17
2022-12-15T19:22:10.005Z,27.13
2022-12-15T19:25:25.984Z,28.67
2022-12-15T19:28:29.530Z,26.23
2022-12-15T19:31:34.232Z,29.50
2022-12-15T19:34:37.983Z,28.45
2022-12-15T19:37:44.142Z,29.52
2022-12-15T19:40:49.671Z,31.35
2022-12-15T19:43:53.759Z,29.13
2022-12-15T19:46:58.197Z,30.03
2022-12-15T19:50:01.630Z,30.75
2022-12-15T19:53:17.396Z,28.77
2022-12-15T19:56:23.223Z,31.95
2022-12-15T19:59:28.781Z,28.67
2022-12-15T20:02:33.799Z,29.38
2022-12-15T20:05:37.358Z,32.50
2022-12-15T20:08:45.959Z,27.58
2022-12-15T20:11:50.597Z,28.60
2022-12-15T20:14:53.563Z,28.80
2022-12-15T20:17:57.746Z,31.67
2022-12-15T20:21:01.558Z,29.52
2022-12-15T20:24:12.606Z,30.13
2022-12-15T20:27:18.821Z,29.30
2022-12-15T20:30:29.646Z,28.37
2022-12-15T20:33:33.543Z,29.00
2022-12-15T20:36:39.496Z,28.98
2022-12-15T20:39:42.807Z,30.52
2022-12-15T20:42:46.167Z,28.88
2022-12-15T20:45:58.274Z,27.30
2022-12-15T20:49:04.694Z,29.55
2022-12-15T20:52:18.661Z,30.60
2022-12-15T20:55:22.653Z,27.63
2022-12-15T20:58:32.710Z,29.27
2022-12-15T21:01:37.101Z,27.37
2022-12-15T21:04:40.786Z,28.92
2022-12-15T21:07:46.372Z,30.50
2022-12-15T21:10:50.361Z,28.52
2022-12-15T21:14:03.833Z,29.67
2022-12-15T21:17:06.758Z,28.60
2022-12-15T21:20:11.650Z,25.77
2022-12-15T21:23:27.557Z,29.33
2022-12-15T21:26:30.348Z,28.73
2022-12-15T21:29:35.150Z,29.25
2022-12-15T21:32:39.178Z,29.27
2022-12-15T21:35:43.208Z,26.88
2022-12-15T21:38:48.677Z,29.85
2022-12-15T21:41:51.806Z,29.15
2022-12-15T21:44:54.499Z,24.25
2022-12-15T21:48:15.609Z,26.50
2022-12-15T21:51:22.178Z,26.13
2022-12-15T21:54:33.291Z,28.73
2022-12-15T21:57:35.975Z,28.80
2022-12-15T22:00:43.844Z,25.77
2022-12-15T22:03:52.638Z,27.00
2022-12-15T22:06:57.510Z,29.00
2022-12-15T22:10:00.158Z,27.67
2022-12-15T22:13:03.707Z,26.20
2022-12-15T22:16:07.161Z,26.13
2022-12-15T22:19:12.693Z,23.60
2022-12-15T22:22:16.730Z,28.65
2022-12-15T22:25:24.565Z,26.20
2022-12-15T22:28:28.592Z,25.27
2022-12-15T22:31:31.380Z,23.73
2022-12-15T22:34:34.044Z,25.87
2022-12-15T22:37:36.774Z,26.42
2022-12-15T22:40:40.186Z,24.45
2022-12-15T22:44:01.194Z,25.60
2022-12-15T22:47:04.944Z,25.03
2022-12-15T22:50:07.935Z,25.60
2022-12-15T22:53:20.509Z,23.95
2022-12-15T22:56:26.900Z,24.95
2022-12-15T22:59:44.095Z,24.10
2022-12-15T23:02:47.491Z,23.93
2022-12-15T23:05:51.298Z,27.73
2022-12-15T23:08:56.217Z,23.70
2022-12-15T23:12:02.187Z,23.33
2022-12-15T23:15:23.556Z,22.58
2022-12-15T23:18:26.574Z,23.27
2022-12-15T23:21:29.241Z,22.77
2022-12-15T23:24:31.985Z,22.23
2022-12-15T23:27:34.662Z,22.50
2022-12-15T23:30:37.502Z,21.63
2022-12-15T23:33:41.702Z,24.37
2022-12-15T23:36:44.576Z,22.13
2022-12-15T23:39:47.380Z,22.50
2022-12-15T23:42:50.908Z,21.67
2022-12-15T23:46:00.408Z,22.25
2022-12-15T23:49:03.449Z,21.83
2022-12-15T23:52:06.393Z,21.13
2022-12-15T23:55:10.324Z,20.25
2022-12-15T23:58:13.243Z,21.08
